createdAt,value
2019-01-09T00:02:24.276Z,95.60
2019-01-09T00:04:52.943Z,95.60
2019-01-09T00:07:21.657Z,95.60
2019-01-09T00:09:50.332Z,95.50
2019-01-09T00:12:19.014Z,95.60
2019-01-09T00:14:47.686Z,95.60
2019-01-09T00:17:16.371Z,95.50
2019-01-09T00:19:45.088Z,95.50
2019-01-09T00:22:13.779Z,95.40
2019-01-09T00:24:42.427Z,95.30
2019-01-09T00:27:11.134Z,95.30
2019-01-09T00:29:39.794Z,95.10
2019-01-09T00:32:08.542Z,95.30
2019-01-09T00:34:37.221Z,95.00
2019-01-09T00:37:05.897Z,95.10
2019-01-09T00:39:34.549Z,95.00
2019-01-09T00:42:03.214Z,95.20
2019-01-09T00:44:31.922Z,95.00
2019-01-09T00:47:00.588Z,95.20
2019-01-09T00:49:29.284Z,95.30
2019-01-09T00:51:58.270Z,95.10
2019-01-09T00:54:26.959Z,95.10
2019-01-09T00:56:55.671Z,95.30
2019-01-09T00:59:24.390Z,95.20
2019-01-09T01:02:14.477Z,95.10
2019-01-09T01:04:54.951Z,95.10
2019-01-09T01:07:58.652Z,95.10
2019-01-09T01:10:45.235Z,95.10
2019-01-09T01:13:28.711Z,95.10
2019-01-09T01:16:25.816Z,95.10
2019-01-09T01:19:12.622Z,95.20
2019-01-09T01:21:44.417Z,95.30
2019-01-09T01:24:25.091Z,95.20
2019-01-09T01:27:02.112Z,95.30
2019-01-09T01:29:54.708Z,95.20
2019-01-09T01:32:29.452Z,95.20
2019-01-09T01:35:07.373Z,94.90
2019-01-09T01:37:54.133Z,95.00
2019-01-09T01:40:31.819Z,95.10
2019-01-09T01:43:33.952Z,95.10
2019-01-09T01:46:11.463Z,95.20
2019-01-09T01:49:00.894Z,95.00
2019-01-09T01:51:56.559Z,95.20
2019-01-09T01:54:39.983Z,95.20
2019-01-09T01:57:27.993Z,94.90
2019-01-09T02:00:05.264Z,95.00
2019-01-09T02:02:45.225Z,94.80
2019-01-09T02:05:22.947Z,94.70
2019-01-09T02:08:03.554Z,95.00
2019-01-09T02:10:56.320Z,94.80
2019-01-09T02:13:36.935Z,94.80
2019-01-09T02:16:14.640Z,94.80
2019-01-09T02:18:46.426Z,94.80
2019-01-09T02:21:27.229Z,94.60
2019-01-09T02:24:01.895Z,94.60
2019-01-09T02:26:36.720Z,94.70
2019-01-09T02:29:11.166Z,94.90
2019-01-09T02:31:51.903Z,95.10
2019-01-09T02:34:20.643Z,95.20
2019-01-09T02:36:49.351Z,95.20
2019-01-09T02:39:18.025Z,95.40
2019-01-09T02:41:46.675Z,95.50
2019-01-09T02:44:15.393Z,95.40
2019-01-09T02:46:44.061Z,95.50
2019-01-09T02:49:12.731Z,95.30
2019-01-09T02:51:41.430Z,95.10
2019-01-09T02:54:10.093Z,95.20
2019-01-09T02:56:38.771Z,95.20
2019-01-09T02:59:07.447Z,95.10
2019-01-09T03:01:36.104Z,95.20
2019-01-09T03:04:04.790Z,95.10
2019-01-09T03:06:33.504Z,95.10
2019-01-09T03:09:02.288Z,95.00
2019-01-09T03:11:30.916Z,95.00
2019-01-09T03:13:59.574Z,95.00
2019-01-09T03:16:28.249Z,94.80
2019-01-09T03:19:16.279Z,94.80
2019-01-09T03:21:44.975Z,94.80
2019-01-09T03:24:13.636Z,94.70
2019-01-09T03:26:42.327Z,94.70
2019-01-09T03:29:11.019Z,94.50
2019-01-09T03:31:39.708Z,94.50
2019-01-09T03:34:08.397Z,94.40
2019-01-09T03:36:37.126Z,94.40
2019-01-09T03:39:06.696Z,94.20
2019-01-09T03:41:35.278Z,94.20
2019-01-09T03:44:03.981Z,94.20
2019-01-09T03:46:32.653Z,94.30
2019-01-09T03:49:01.317Z,94.30
2019-01-09T03:51:29.977Z,94.50
2019-01-09T03:53:58.645Z,94.60
2019-01-09T03:56:27.295Z,94.70
2019-01-09T03:58:55.989Z,94.70
2019-01-09T04:01:26.300Z,94.70
2019-01-09T04:03:54.938Z,94.90
2019-01-09T04:06:23.617Z,94.70
2019-01-09T04:08:52.296Z,94.70
2019-01-09T04:11:20.960Z,94.80
2019-01-09T04:13:49.669Z,95.10
2019-01-09T04:16:18.299Z,95.00
2019-01-09T04:18:47.029Z,94.90
2019-01-09T04:21:15.728Z,94.80
2019-01-09T04:23:44.325Z,94.80
2019-01-09T04:26:13.012Z,94.90
2019-01-09T04:28:41.658Z,94.80
2019-01-09T04:31:10.326Z,94.90
2019-01-09T04:33:39.022Z,94.90
2019-01-09T04:36:07.736Z,94.70
2019-01-09T04:38:36.458Z,94.60
2019-01-09T04:41:05.131Z,94.70
2019-01-09T04:43:33.777Z,94.70
2019-01-09T04:46:02.467Z,94.70
2019-01-09T04:48:31.274Z,94.70
2019-01-09T04:50:59.941Z,94.50
2019-01-09T04:53:28.733Z,94.40
2019-01-09T04:55:57.342Z,94.40
2019-01-09T04:58:26.039Z,94.40
2019-01-09T05:00:54.746Z,94.50
2019-01-09T05:03:23.463Z,94.50
2019-01-09T05:05:52.165Z,94.60
2019-01-09T05:08:20.837Z,94.70
2019-01-09T05:10:49.543Z,94.50
2019-01-09T05:13:18.197Z,94.40
2019-01-09T05:15:46.791Z,94.20
2019-01-09T05:18:15.463Z,94.10
2019-01-09T05:20:44.275Z,94.10
2019-01-09T05:23:13.006Z,94.00
2019-01-09T05:25:41.653Z,93.80
2019-01-09T05:28:10.521Z,94.00
2019-01-09T05:30:39.190Z,93.90
2019-01-09T05:33:09.445Z,93.80
2019-01-09T05:35:39.714Z,93.70
2019-01-09T05:38:10.706Z,93.70
2019-01-09T05:40:39.535Z,93.90
2019-01-09T05:43:08.428Z,93.50
2019-01-09T05:45:37.161Z,93.40
2019-01-09T05:48:05.909Z,93.20
2019-01-09T05:50:34.624Z,93.10
2019-01-09T05:53:05.726Z,93.00
2019-01-09T05:55:34.397Z,92.80
2019-01-09T05:58:03.134Z,92.80
2019-01-09T06:00:34.658Z,92.70
2019-01-09T06:03:03.541Z,92.80
2019-01-09T06:05:32.294Z,92.40
2019-01-09T06:08:01.010Z,92.10
2019-01-09T06:10:29.692Z,91.80
2019-01-09T06:12:58.375Z,92.70
2019-01-09T06:15:27.249Z,91.50
2019-01-09T06:17:55.919Z,91.10
2019-01-09T06:20:24.701Z,90.90
2019-01-09T06:22:53.379Z,90.80
2019-01-09T06:25:22.103Z,90.50
2019-01-09T06:27:50.869Z,90.40
2019-01-09T06:30:19.514Z,90.50
2019-01-09T06:32:48.221Z,90.10
2019-01-09T06:35:18.432Z,90.40
2019-01-09T06:37:47.149Z,90.00
2019-01-09T06:40:15.841Z,90.00
2019-01-09T06:42:44.534Z,89.60
2019-01-09T06:45:13.222Z,89.70
2019-01-09T06:47:41.923Z,88.90
2019-01-09T06:50:13.884Z,88.20
2019-01-09T06:52:42.568Z,88.20
2019-01-09T06:55:11.310Z,87.90
2019-01-09T06:57:40.054Z,87.60
2019-01-09T07:00:10.796Z,87.40
2019-01-09T07:02:39.469Z,86.90
2019-01-09T07:05:08.179Z,86.70
2019-01-09T07:07:36.868Z,86.40
2019-01-09T07:10:07.708Z,87.30
2019-01-09T07:12:36.448Z,86.80
2019-01-09T07:15:11.372Z,86.60
2019-01-09T07:17:37.105Z,87.40
2019-01-09T07:20:05.765Z,87.10
2019-01-09T07:22:34.520Z,87.70
2019-01-09T07:25:04.810Z,88.20
2019-01-09T07:27:33.478Z,88.10
2019-01-09T07:30:02.200Z,86.70
2019-01-09T07:32:32.458Z,86.80
2019-01-09T07:35:01.233Z,86.50
2019-01-09T07:37:30.082Z,85.30
2019-01-09T07:40:01.824Z,85.80
2019-01-09T07:42:30.532Z,84.90
2019-01-09T07:44:59.215Z,84.10
2019-01-09T07:47:27.935Z,83.60
2019-01-09T07:49:56.621Z,83.40
2019-01-09T07:52:25.364Z,83.70
2019-01-09T07:54:54.088Z,83.40
2019-01-09T07:57:26.848Z,82.60
2019-01-09T07:59:56.091Z,82.00
2019-01-09T08:02:24.742Z,82.90
2019-01-09T08:04:53.507Z,83.40
2019-01-09T08:07:22.257Z,83.50
2019-01-09T08:09:51.014Z,83.50
2019-01-09T08:12:19.700Z,83.60
2019-01-09T08:14:48.385Z,83.20
2019-01-09T08:17:17.089Z,82.60
2019-01-09T08:19:45.756Z,81.50
2019-01-09T08:22:14.504Z,81.30
2019-01-09T08:24:43.227Z,81.00
2019-01-09T08:27:11.901Z,81.30
2019-01-09T08:29:40.659Z,81.30
2019-01-09T08:32:09.433Z,79.80
2019-01-09T08:34:38.114Z,78.80
2019-01-09T08:37:06.827Z,79.00
2019-01-09T08:39:36.009Z,78.30
2019-01-09T08:42:04.698Z,78.80
2019-01-09T08:44:33.498Z,77.30
2019-01-09T08:47:02.205Z,77.40
2019-01-09T08:49:30.948Z,78.20
2019-01-09T08:51:59.682Z,78.30
2019-01-09T08:54:28.344Z,77.50
2019-01-09T08:56:57.093Z,76.60
2019-01-09T08:59:25.799Z,77.60
2019-01-09T09:01:54.510Z,78.90
2019-01-09T09:04:25.682Z,77.60
2019-01-09T09:06:54.418Z,78.10
2019-01-09T09:09:23.225Z,78.30
2019-01-09T09:11:53.629Z,78.40
2019-01-09T09:14:22.846Z,77.00
2019-01-09T09:16:51.515Z,76.30
2019-01-09T09:19:22.025Z,77.50
2019-01-09T09:21:50.757Z,78.10
2019-01-09T09:24:19.430Z,77.70
2019-01-09T09:26:48.096Z,78.00
2019-01-09T09:29:16.795Z,76.20
2019-01-09T09:31:45.517Z,76.00
2019-01-09T09:34:14.218Z,75.80
2019-01-09T09:36:44.365Z,77.00
2019-01-09T09:39:13.067Z,76.40
2019-01-09T09:41:41.785Z,77.10
2019-01-09T09:44:10.505Z,77.40
2019-01-09T09:46:39.223Z,78.10
2019-01-09T09:49:07.972Z,77.20
2019-01-09T09:51:36.636Z,77.40
2019-01-09T09:54:05.571Z,77.80
2019-01-09T09:56:35.659Z,77.20
2019-01-09T09:59:04.342Z,77.10
2019-01-09T10:01:33.054Z,77.80
2019-01-09T10:04:01.674Z,77.70
2019-01-09T10:06:30.727Z,75.70
2019-01-09T10:08:59.481Z,76.70
2019-01-09T10:11:29.962Z,77.50
2019-01-09T10:13:59.259Z,80.00
2019-01-09T10:16:27.932Z,80.30
2019-01-09T10:18:56.645Z,81.80
2019-01-09T10:21:25.920Z,81.20
2019-01-09T10:23:55.925Z,80.90
2019-01-09T10:26:24.727Z,80.50
2019-01-09T10:28:53.615Z,79.70
2019-01-09T10:31:24.472Z,79.60
2019-01-09T10:33:56.643Z,79.70
2019-01-09T10:36:25.922Z,79.40
2019-01-09T10:38:55.198Z,79.80
2019-01-09T10:41:24.087Z,80.10
2019-01-09T10:43:54.117Z,80.50
2019-01-09T10:46:23.035Z,80.70
2019-01-09T10:51:43.223Z,80.50
2019-01-09T10:54:23.679Z,80.50
2019-01-09T10:56:53.412Z,79.80
2019-01-09T10:59:25.170Z,79.70
2019-01-09T11:01:55.216Z,80.20
2019-01-09T11:04:26.681Z,80.20
2019-01-09T11:06:56.265Z,79.80
2019-01-09T11:09:25.132Z,79.40
2019-01-09T11:11:53.860Z,79.70
2019-01-09T12:23:01.272Z,84.90
2019-01-09T12:25:30.017Z,84.30
2019-01-09T12:27:59.773Z,85.00
2019-01-09T12:30:31.593Z,90.50
2019-01-09T12:33:09.409Z,83.20
2019-01-09T14:06:35.918Z,91.00
2019-01-09T14:09:06.921Z,90.90
2019-01-09T14:11:38.273Z,90.70
2019-01-09T14:14:07.120Z,90.30
2019-01-09T14:16:36.000Z,90.30
2019-01-09T14:19:06.423Z,90.30
2019-01-09T14:21:37.088Z,90.20
2019-01-09T14:24:07.270Z,89.90
2019-01-09T14:26:36.180Z,89.70
2019-01-09T14:29:10.527Z,90.30
2019-01-09T14:31:39.930Z,90.40
2019-01-09T14:34:08.782Z,90.50
2019-01-09T14:36:40.431Z,90.60
2019-01-09T14:39:11.259Z,90.50
2019-01-09T14:41:41.211Z,90.20
2019-01-09T14:44:11.488Z,90.20
2019-01-09T14:46:40.290Z,90.00
2019-01-09T14:49:09.930Z,90.30
2019-01-09T14:51:43.205Z,90.30
2019-01-09T14:54:10.572Z,90.50
2019-01-09T14:56:39.326Z,90.30
2019-01-09T14:59:08.021Z,90.40
2019-01-09T15:01:37.856Z,90.50
2019-01-09T15:04:08.902Z,90.40
2019-01-09T15:06:37.568Z,90.50
2019-01-09T15:09:07.744Z,90.40
2019-01-09T15:11:36.450Z,90.40
2019-01-09T15:14:06.752Z,90.30
2019-01-09T15:16:36.712Z,90.50
2019-01-09T15:19:08.249Z,90.80
2019-01-09T15:21:38.106Z,90.70
2019-01-09T15:24:08.571Z,90.80
2019-01-09T15:26:37.249Z,90.80
2019-01-09T15:29:06.121Z,91.20
2019-01-09T15:31:38.647Z,91.00
2019-01-09T15:34:08.694Z,91.30
2019-01-09T15:36:37.456Z,91.20
2019-01-09T15:39:07.631Z,91.10
2019-01-09T15:41:36.387Z,91.10
2019-01-09T15:44:05.177Z,90.90
2019-01-09T15:46:35.480Z,90.80
2019-01-09T15:49:04.245Z,90.60
2019-01-09T15:51:34.307Z,90.70
2019-01-09T15:54:04.720Z,90.50
2019-01-09T15:56:33.623Z,90.30
2019-01-09T15:59:02.394Z,90.30
2019-01-09T16:01:31.075Z,90.50
2019-01-09T16:04:00.308Z,90.10
2019-01-09T16:06:34.157Z,90.20
2019-01-09T16:50:04.983Z,90.60
2019-01-09T16:52:33.757Z,90.60
2019-01-09T16:55:04.974Z,90.50
2019-01-09T16:57:33.733Z,90.40
2019-01-09T17:00:02.398Z,90.80
2019-01-09T17:02:35.142Z,90.50
2019-01-09T17:05:04.248Z,90.20
2019-01-09T17:07:35.779Z,90.10
2019-01-09T17:10:08.130Z,90.10
2019-01-09T17:12:36.857Z,90.20
2019-01-09T17:15:08.674Z,90.10
2019-01-09T17:17:37.325Z,90.20
2019-01-09T17:20:09.147Z,89.90
2019-01-09T17:22:37.862Z,89.40
2019-01-09T17:25:07.851Z,89.70
2019-01-09T17:27:36.562Z,90.60
2019-01-09T17:30:17.318Z,91.50
2019-01-09T17:32:46.246Z,91.10
2019-01-09T17:49:08.717Z,89.40
2019-01-09T17:51:41.340Z,89.20
2019-01-09T17:54:10.140Z,89.40
2019-01-09T17:56:43.062Z,89.00
2019-01-09T17:59:16.026Z,88.70
2019-01-09T18:01:55.062Z,89.30
2019-01-09T18:04:23.731Z,89.90
2019-01-09T18:06:52.530Z,90.10
2019-01-09T18:09:21.180Z,89.30
2019-01-09T18:11:50.031Z,89.00
2019-01-09T18:14:18.820Z,89.90
2019-01-09T18:16:47.645Z,90.10
2019-01-09T18:19:16.420Z,89.40
2019-01-09T18:21:45.238Z,89.70
2019-01-09T18:24:18.004Z,89.20
2019-01-09T18:26:44.599Z,89.40
2019-01-09T18:29:13.320Z,88.80
2019-01-09T18:32:00.200Z,89.40
2019-01-09T18:34:29.449Z,89.10
2019-01-09T18:37:07.081Z,88.90
2019-01-09T18:39:58.481Z,89.30
2019-01-09T18:42:45.134Z,89.00
2019-01-09T18:45:22.919Z,89.20
2019-01-09T18:47:57.661Z,89.60
2019-01-09T18:50:38.961Z,89.60
2019-01-09T18:53:13.412Z,88.40
2019-01-09T18:55:44.050Z,88.20
2019-01-09T18:58:12.950Z,88.10
2019-01-09T19:00:55.312Z,88.20
2019-01-09T19:03:25.259Z,87.50
2019-01-09T19:05:54.629Z,87.80
2019-01-09T19:08:23.419Z,87.50
2019-01-09T19:10:54.822Z,87.30
2019-01-09T19:13:26.638Z,87.60
2019-01-09T19:15:57.038Z,87.30
2019-01-09T19:18:25.762Z,87.30
2019-01-09T19:20:57.593Z,87.70
2019-01-09T19:23:26.400Z,88.00
2019-01-09T19:25:58.262Z,87.60
2019-01-09T19:28:27.259Z,87.50
2019-01-09T19:30:59.960Z,87.40
2019-01-09T19:33:28.536Z,87.20
2019-01-09T19:36:06.844Z,87.20
2019-01-09T19:39:18.137Z,87.10
2019-01-09T19:41:41.439Z,88.00
2019-01-09T19:44:23.131Z,87.60
2019-01-09T19:46:51.841Z,88.60
2019-01-09T19:49:23.565Z,89.60
2019-01-09T19:51:52.260Z,89.40
2019-01-09T19:54:20.975Z,90.10
2019-01-09T19:56:49.799Z,90.30
2019-01-09T19:59:19.992Z,90.40
2019-01-09T20:01:50.241Z,90.80
2019-01-09T20:04:20.502Z,91.20
2019-01-09T20:06:49.325Z,91.60
2019-01-09T20:09:18.352Z,91.70
2019-01-09T20:11:47.018Z,91.90
2019-01-09T20:14:15.697Z,92.10
2019-01-09T20:16:44.448Z,91.90
2019-01-09T20:19:13.293Z,92.10
2019-01-09T20:21:42.055Z,92.10
2019-01-09T20:24:10.761Z,92.50
2019-01-09T20:26:39.478Z,92.70
2019-01-09T20:29:11.370Z,92.60
2019-01-09T20:31:40.119Z,92.50
2019-01-09T20:34:08.904Z,92.70
2019-01-09T20:36:37.741Z,92.80
2019-01-09T20:39:07.785Z,92.70
2019-01-09T20:41:36.793Z,92.70
2019-01-09T20:44:05.556Z,92.70
2019-01-09T20:46:34.295Z,92.90
2019-01-09T20:49:03.048Z,92.90
2019-01-09T20:51:31.913Z,92.80
2019-01-09T20:54:00.680Z,92.80
2019-01-09T20:56:29.352Z,92.90
2019-01-09T20:58:58.108Z,93.20
2019-01-09T21:01:27.384Z,93.00
2019-01-09T21:03:56.218Z,93.00
2019-01-09T21:06:24.972Z,93.10
2019-01-09T21:08:59.562Z,93.30
2019-01-09T21:11:24.175Z,93.40
2019-01-09T21:13:52.928Z,93.70
2019-01-09T21:16:21.627Z,93.80
2019-01-09T21:18:50.297Z,93.80
2019-01-09T21:21:18.991Z,93.80
2019-01-09T21:23:47.704Z,93.80
2019-01-09T21:26:16.386Z,93.90
2019-01-09T21:28:45.091Z,94.00
2019-01-09T21:31:13.841Z,94.20
2019-01-09T21:33:42.551Z,94.30
2019-01-09T21:36:13.612Z,94.50
2019-01-09T21:38:42.316Z,94.50
2019-01-09T21:41:12.037Z,94.50
2019-01-09T21:43:42.684Z,94.60
2019-01-09T21:46:11.431Z,94.50
2019-01-09T21:48:40.084Z,94.50
2019-01-09T21:51:08.828Z,94.60
2019-01-09T21:53:37.566Z,94.60
2019-01-09T21:56:06.287Z,94.80
2019-01-09T21:58:35.407Z,94.70
2019-01-09T22:01:04.171Z,94.80
2019-01-09T22:03:32.849Z,95.00
2019-01-09T22:06:01.563Z,94.90
2019-01-09T22:08:30.212Z,95.00
2019-01-09T22:10:58.885Z,95.00
2019-01-09T22:13:27.550Z,95.40
2019-01-09T22:15:56.282Z,95.00
2019-01-09T22:18:25.025Z,95.10
2019-01-09T22:20:53.896Z,95.10
2019-01-09T22:23:23.719Z,94.90
2019-01-09T22:25:52.575Z,95.00
2019-01-09T22:28:21.239Z,95.10
2019-01-09T22:30:49.908Z,95.00
2019-01-09T22:33:18.983Z,95.80
2019-01-09T22:35:47.668Z,94.70
2019-01-09T22:38:16.352Z,94.40
2019-01-09T22:40:45.068Z,94.50
2019-01-09T22:43:13.732Z,94.20
2019-01-09T22:45:42.373Z,94.00
2019-01-09T22:48:11.075Z,94.10
2019-01-09T22:50:39.769Z,94.50
2019-01-09T22:53:08.441Z,94.60
2019-01-09T22:55:37.110Z,94.80
2019-01-09T22:58:05.760Z,94.80
2019-01-09T23:00:40.768Z,94.90
2019-01-09T23:03:11.444Z,95.00
2019-01-09T23:05:40.159Z,95.10
2019-01-09T23:08:08.874Z,95.10
2019-01-09T23:10:37.521Z,95.20
2019-01-09T23:13:06.204Z,95.20
2019-01-09T23:15:34.891Z,95.10
2019-01-09T23:18:03.584Z,95.10
2019-01-09T23:20:32.918Z,95.20
2019-01-09T23:23:01.598Z,95.20
2019-01-09T23:25:30.275Z,95.20
2019-01-09T23:28:00.510Z,95.20
2019-01-09T23:30:29.182Z,95.40
2019-01-09T23:32:57.878Z,95.30
2019-01-09T23:35:26.662Z,95.40
2019-01-09T23:37:55.348Z,95.60
2019-01-09T23:40:24.020Z,95.60
2019-01-09T23:42:52.697Z,95.60
2019-01-09T23:45:21.364Z,95.60
2019-01-09T23:47:50.043Z,95.50
2019-01-09T23:50:18.706Z,95.40
2019-01-09T23:52:47.353Z,95.30
2019-01-09T23:55:16.029Z,95.30
2019-01-09T23:57:44.694Z,95.30
